Nearby METAR Reports

 

KMTN - Baltimore/Martin, Maryland, USA
Distance from station: SSE 8mi, 13km
Updated: Sat, 30-Aug-2014 3:45pm EDT
Mostly cloudy
Mostly cloudy
 Wind from SE
Wind: SE 9 mph , 15 km/h
Temperature: 81°F , 27°C
Heat Index: 84°F , 29°C
Dew Point: 68°F , 20°C
Humidity: 66%
Barometer: 30.18 inHg , 1022 hPa
Clouds: Mostly cloudy
Visibility: 10 miles , 16 km
Cloud details: Mostly cloudy 3000 ft
2014/08/30 19:45 KMTN 301945Z 13008KT 10SM BKN030 27/20 A3018
KDMH - Baltimore/Dwntwn, Maryland, USA
Distance from station: SW 12mi, 19km
Updated: Sat, 30-Aug-2014 3:54pm EDT

 
Temperature: 79°F , 26°C
Dew Point: 64°F , 18°C
Humidity: 61%
Barometer: 30.16 inHg , 1021.3 hPa
2014/08/30 19:54 KDMH 301954Z AUTO 26/18 A3016 RMK AO1 SLP212 T02610183
 
KBWI - Balto/Wash Intl, Maryland, USA
Distance from station: SSW 20mi, 33km
Updated: Sat, 30-Aug-2014 3:54pm EDT
Mostly cloudy
Mostly cloudy
 Wind from S
Wind: S 7 mph , 11 km/h
Temperature: 81°F , 27°C
Heat Index: 84°F , 29°C
Dew Point: 68°F , 20°C
Humidity: 66%
Barometer: 30.15 inHg , 1021 hPa
Clouds: Mostly cloudy
Visibility: 10 miles , 16 km
Cloud details: Partly cloudy 2700 ft
Mostly cloudy 3600 ft
Mostly cloudy 6000 ft
2014/08/30 19:54 KBWI 301954Z 18006KT 10SM SCT027 BKN036 BKN060 27/20 A3015 RMK AO2 SLP208 T02670200
KDMW - Carroll Cnty, Maryland, USA
Distance from station: WNW 30mi, 48km
Updated: Sat, 30-Aug-2014 4:00pm EDT
Partly cloudy
Partly cloudy
 Wind from S
Wind: S 10 mph , 17 km/h
Temperature: 82°F , 28°C
Heat Index: 85°F , 29°C
Dew Point: 68°F , 20°C
Humidity: 62%
Barometer: 30.16 inHg , 1021.3 hPa
Clouds: Partly cloudy
Visibility: 10 miles , 16 km
Cloud details: Partly cloudy 2700 ft
Partly cloudy 7000 ft
2014/08/30 20:00 KDMW 302000Z AUTO 17009KT 10SM SCT027 SCT070 28/20 A3016 RMK AO2
 
KNAK - Annapolis/Naval, Maryland, USA
Distance from station: S 30mi, 48km
Updated: Sat, 30-Aug-2014 3:54pm EDT
Clear
Clear
 Wind from S
Wind: S 9 mph , 15 km/h
Temperature: 81°F , 27°C
Heat Index: 83°F , 28°C
Dew Point: 66°F , 19°C
Humidity: 62%
Barometer: 30.16 inHg , 1021.3 hPa
Clouds: Clear
Visibility: 10 miles , 16 km
2014/08/30 19:54 KNAK 301954Z AUTO 17008KT 10SM CLR 27/19 A3016 RMK AO2 SLP213 T02670189
KW29 - Stevensville, Maryland, USA
Distance from station: SSE 31mi, 50km
Updated: Sat, 30-Aug-2014 4:02pm EDT

 Wind from SSE
Wind: SSE 8 mph , 13 km/h
Temperature: 81°F , 27°C
Heat Index: 81°F , 27°C
Dew Point: 59°F , 15°C
Humidity: 48%
Barometer: 30.16 inHg , 1021.3 hPa
Visibility: 10 miles , 16 km
2014/08/30 20:02 KW29 302002Z AUTO 16007KT 10SM 27/15 A3016 RMK AO1
 
KCGS - College Park, Maryland, USA
Distance from station: SW 38mi, 61km
Updated: Sat, 30-Aug-2014 4:00pm EDT
Overcast
Overcast
 Wind from S
Wind: S 7 mph , 11 km/h
Temperature: 86°F , 30°C
Heat Index: 89°F , 32°C
Dew Point: 68°F , 20°C
Humidity: 55%
Barometer: 30.14 inHg , 1020.7 hPa
Clouds: Overcast
Visibility: 10 miles , 16 km
Cloud details: Mostly cloudy 3500 ft
Overcast 4100 ft
2014/08/30 20:00 KCGS 302000Z AUTO 17006KT 10SM BKN035 OVC041 30/20 A3014 RMK AO1
KGAI - Gaithersburg, Maryland, USA
Distance from station: WSW 40mi, 65km
Updated: Sat, 30-Aug-2014 3:55pm EDT
Overcast
Overcast
 Wind from S
Wind: S 7 mph , 11 km/h
Temperature: 81°F , 27°C
Heat Index: 84°F , 29°C
Dew Point: 68°F , 20°C
Humidity: 66%
Barometer: 30.19 inHg , 1022.4 hPa
Clouds: Overcast
Visibility: 10 miles , 16 km
Cloud details: Overcast 3100 ft
2014/08/30 19:55 KGAI 301955Z AUTO 19006KT 10SM OVC031 27/20 A3019 RMK AO1
 
KTHV - York, Pennsylvania, USA
Distance from station: NNW 40mi, 65km
Updated: Sat, 30-Aug-2014 3:53pm EDT
Mostly cloudy
Mostly cloudy
 Wind from varies
Wind: varies 5 mph , 7 km/h
Temperature: 79°F , 26°C
Dew Point: 66°F , 19°C
Humidity: 65%
Barometer: 30.15 inHg , 1021 hPa
Clouds: Mostly cloudy
Visibility: 10 miles , 16 km
Cloud details: Mostly cloudy 3100 ft
2014/08/30 19:53 KTHV 301953Z AUTO VRB04KT 10SM BKN031 26/19 A3015 RMK AO2 SLP208 T02610194
KFDK - Frederick, Maryland, USA
Distance from station: W 47mi, 75km
Updated: Sat, 30-Aug-2014 3:50pm EDT
Overcast
Overcast
 Wind from S
Wind: S 6 mph , 9 km/h
Temperature: 82°F , 28°C
Heat Index: 86°F , 30°C
Dew Point: 72°F , 22°C
Humidity: 70%
Barometer: 30.17 inHg , 1021.7 hPa
Clouds: Overcast
Visibility: 10 miles , 16 km
Cloud details: Overcast 2900 ft
2014/08/30 19:50 KFDK 301950Z 17005KT 10SM OVC029 28/22 A3017
 
KESN - Easton/Newnam, Maryland, USA
Distance from station: SSE 48mi, 78km
Updated: Sat, 30-Aug-2014 3:50pm EDT
Partly cloudy
Partly cloudy
 Wind from S
Wind: S 8 mph , 13 km/h
Temperature: 84°F , 29°C
Heat Index: 86°F , 30°C
Dew Point: 66°F , 19°C
Humidity: 55%
Barometer: 30.20 inHg , 1022.7 hPa
Clouds: Partly cloudy
Visibility: 10 miles , 16 km
Cloud details: Partly cloudy 4000 ft
2014/08/30 19:50 KESN 301950Z 17007KT 10SM SCT040 29/19 A3020
KDCA - Washington/Natl, Washington D.c., USA
Distance from station: SW 49mi, 79km
Updated: Sat, 30-Aug-2014 3:52pm EDT
Mostly cloudy
Mostly cloudy
 Wind from S
Wind: S 7 mph , 11 km/h
Temperature: 84°F , 29°C
Heat Index: 87°F , 31°C
Dew Point: 68°F , 20°C
Humidity: 58%
Barometer: 30.15 inHg , 1021 hPa
Clouds: Mostly cloudy
Visibility: 10 miles , 16 km
Cloud details: Mostly cloudy 4200 ft
Mostly cloudy 6000 ft
2014/08/30 19:52 KDCA 301952Z 17006KT 10SM BKN042 BKN060 29/20 A3015 RMK AO2 SLP209 T02940200
 
KLNS - Lancaster, Pennsylvania, USA
Distance from station: N 49mi, 79km
Updated: Sat, 30-Aug-2014 3:53pm EDT
Few Clouds
Few Clouds
 Wind from SSE
Wind: SSE 12 mph , 19 km/h
Temperature: 79°F , 26°C
Dew Point: 63°F , 17°C
Humidity: 58%
Barometer: 30.16 inHg , 1021.3 hPa
Clouds: Few Clouds
Visibility: 10 miles , 16 km
Cloud details: Few Clouds 3400 ft
2014/08/30 19:53 KLNS 301953Z 15010KT 10SM FEW034 26/17 A3016 RMK AO2 SLP210 T02610167 $
KILG - Wilmington, Delaware, USA
Distance from station: ENE 50mi, 81km
Updated: Sat, 30-Aug-2014 3:51pm EDT
Overcast
Overcast
 Wind from SSE
Wind: SSE 13 mph , 20 km/h
Temperature: 79°F , 26°C
Dew Point: 64°F , 18°C
Humidity: 61%
Barometer: 30.18 inHg , 1022 hPa
Clouds: Overcast
Visibility: 10 miles , 16 km
Cloud details: Mostly cloudy 3800 ft
Overcast 4900 ft
2014/08/30 19:51 KILG 301951Z 16011KT 10SM BKN038 OVC049 26/18 A3018 RMK AO2 SLP220 T02610183